Terminal Aerodrome Forecast
Issued by NWS Melbourne, FL

Home | Current Version | Previous Version | Text Only | Print | Product List | Glossary On
Versions: 1 2 3 4 5 6 7 8 9 10 11 12 13 14
000
FTUS42 KMLB 301100
TAFMLB
TAF
KMLB 301135Z 3012/0112 26005KT P6SM VCSH SCT010 BKN025
      TEMPO 3014/3016 5SM SHRA
     FM301600 27007KT P6SM VCSH SCT010 OVC035
      TEMPO 3016/3020 3SM SHRA BKN025
     FM302100 31008KT P6SM SCT020 OVC040
      TEMPO 3021/3023 2SM SHRA BKN020
     FM010000 29006KT P6SM VCSH SCT020 BKN080=

USA.gov is the U.S. government's official web portal to all federal, state and local government web resources and services.